sensor_id;sensor_type;location;lat;lon;timestamp;pressure;altitude;pressure_sealevel;temperature;humidity
7586;BME280;12459;42.646;23.292;2023-02-12T00:11:19;94498.22;;;6.76;76.44
7586;BME280;12459;42.646;23.292;2023-02-12T00:26:20;94511.88;;;6.74;76.11
7586;BME280;12459;42.646;23.292;2023-02-12T00:41:22;94495.13;;;6.73;76.13
7586;BME280;12459;42.646;23.292;2023-02-12T00:56:24;94480.22;;;6.69;75.93
7586;BME280;12459;42.646;23.292;2023-02-12T01:11:25;94463.53;;;6.72;76.02
7586;BME280;12459;42.646;23.292;2023-02-12T01:26:28;94489.03;;;6.73;76.20
7586;BME280;12459;42.646;23.292;2023-02-12T01:41:34;94484.13;;;6.75;76.23
7586;BME280;12459;42.646;23.292;2023-02-12T01:56:38;94449.38;;;6.68;75.50
7586;BME280;12459;42.646;23.292;2023-02-12T02:11:40;94461.22;;;6.70;76.17
7586;BME280;12459;42.646;23.292;2023-02-12T02:27:09;94465.38;;;6.68;76.27
7586;BME280;12459;42.646;23.292;2023-02-12T02:42:16;94449.84;;;6.73;76.70
7586;BME280;12459;42.646;23.292;2023-02-12T03:12:28;94459.31;;;6.71;76.91
7586;BME280;12459;42.646;23.292;2023-02-12T03:27:33;94453.59;;;6.69;77.26
7586;BME280;12459;42.646;23.292;2023-02-12T03:57:40;94458.97;;;6.72;77.52
7586;BME280;12459;42.646;23.292;2023-02-12T04:43:05;94473.06;;;6.73;78.08
7586;BME280;12459;42.646;23.292;2023-02-12T04:58:06;94489.84;;;6.77;77.93
7586;BME280;12459;42.646;23.292;2023-02-12T05:13:08;94502.81;;;6.79;77.80
7586;BME280;12459;42.646;23.292;2023-02-12T05:28:11;94527.56;;;6.79;78.30
7586;BME280;12459;42.646;23.292;2023-02-12T05:43:13;94535.84;;;6.74;78.90
7586;BME280;12459;42.646;23.292;2023-02-12T05:58:14;94543.47;;;6.76;80.93
7586;BME280;12459;42.646;23.292;2023-02-12T06:13:16;94548.81;;;6.76;80.91
7586;BME280;12459;42.646;23.292;2023-02-12T06:28:18;94549.16;;;6.74;82.02
7586;BME280;12459;42.646;23.292;2023-02-12T06:43:19;94574.31;;;6.77;82.65
7586;BME280;12459;42.646;23.292;2023-02-12T06:58:21;94576.69;;;6.82;83.34
7586;BME280;12459;42.646;23.292;2023-02-12T07:13:22;94560.72;;;6.82;82.81
7586;BME280;12459;42.646;23.292;2023-02-12T07:28:24;94570.94;;;6.80;82.72
7586;BME280;12459;42.646;23.292;2023-02-12T07:43:26;94585.03;;;6.80;87.20
7586;BME280;12459;42.646;23.292;2023-02-12T07:58:28;94595.41;;;6.85;85.62
7586;BME280;12459;42.646;23.292;2023-02-12T08:13:29;94600.31;;;6.83;85.39
7586;BME280;12459;42.646;23.292;2023-02-12T08:28:31;94608.72;;;6.85;84.70
7586;BME280;12459;42.646;23.292;2023-02-12T08:43:33;94636.13;;;6.86;91.67
7586;BME280;12459;42.646;23.292;2023-02-12T08:58:37;94643.94;;;7.17;99.50
7586;BME280;12459;42.646;23.292;2023-02-12T09:13:39;94660.78;;;7.02;98.50
7586;BME280;12459;42.646;23.292;2023-02-12T09:28:41;94670.97;;;6.96;94.18
7586;BME280;12459;42.646;23.292;2023-02-12T09:43:43;94678.53;;;6.94;92.56
7586;BME280;12459;42.646;23.292;2023-02-12T09:58:58;94685.00;;;6.93;91.30
7586;BME280;12459;42.646;23.292;2023-02-12T10:14:04;94686.59;;;6.98;90.61
7586;BME280;12459;42.646;23.292;2023-02-12T10:29:12;94671.72;;;7.16;88.75
7586;BME280;12459;42.646;23.292;2023-02-12T10:44:15;94686.22;;;7.19;91.56
7586;BME280;12459;42.646;23.292;2023-02-12T10:59:22;94689.44;;;7.28;89.88
7586;BME280;12459;42.646;23.292;2023-02-12T11:14:24;94687.88;;;7.27;88.51
7586;BME280;12459;42.646;23.292;2023-02-12T11:29:26;94686.34;;;7.26;87.71
7586;BME280;12459;42.646;23.292;2023-02-12T11:44:33;94677.94;;;7.24;87.20
7586;BME280;12459;42.646;23.292;2023-02-12T11:59:37;94689.78;;;7.26;86.65
7586;BME280;12459;42.646;23.292;2023-02-12T12:14:48;94692.53;;;7.30;86.32
7586;BME280;12459;42.646;23.292;2023-02-12T12:30:14;94691.00;;;7.29;86.00
7586;BME280;12459;42.646;23.292;2023-02-12T13:00:37;94727.19;;;7.30;85.43
7586;BME280;12459;42.646;23.292;2023-02-12T13:30:48;94737.41;;;7.28;85.00
7586;BME280;12459;42.646;23.292;2023-02-12T13:45:51;94738.88;;;7.25;84.74
7586;BME280;12459;42.646;23.292;2023-02-12T14:01:00;94753.41;;;7.28;85.52
7586;BME280;12459;42.646;23.292;2023-02-12T14:16:48;94777.22;;;7.36;90.38
7586;BME280;12459;42.646;23.292;2023-02-12T15:01:36;94835.81;;;7.33;86.04
7586;BME280;12459;42.646;23.292;2023-02-12T15:31:43;94902.03;;;7.31;98.65
7586;BME280;12459;42.646;23.292;2023-02-12T15:46:59;94912.44;;;7.20;97.60
7586;BME280;12459;42.646;23.292;2023-02-12T16:02:17;94920.38;;;7.17;94.76
7586;BME280;12459;42.646;23.292;2023-02-12T16:17:25;94956.81;;;7.13;93.20
7586;BME280;12459;42.646;23.292;2023-02-12T16:47:29;94989.06;;;7.08;92.34
7586;BME280;12459;42.646;23.292;2023-02-12T17:02:30;95013.75;;;7.04;93.42
7586;BME280;12459;42.646;23.292;2023-02-12T17:17:34;95033.09;;;7.01;92.83
7586;BME280;12459;42.646;23.292;2023-02-12T17:32:35;95076.41;;;6.98;92.47
7586;BME280;12459;42.646;23.292;2023-02-12T17:47:38;95074.88;;;6.97;92.10
7586;BME280;12459;42.646;23.292;2023-02-12T18:02:40;95091.88;;;6.93;91.98
7586;BME280;12459;42.646;23.292;2023-02-12T18:17:41;95095.22;;;6.90;91.53
7586;BME280;12459;42.646;23.292;2023-02-12T18:32:43;95081.56;;;6.91;91.47
7586;BME280;12459;42.646;23.292;2023-02-12T18:47:44;95089.13;;;6.89;91.12
7586;BME280;12459;42.646;23.292;2023-02-12T19:02:46;95115.44;;;6.91;91.11
7586;BME280;12459;42.646;23.292;2023-02-12T19:17:48;95146.38;;;6.95;95.24
7586;BME280;12459;42.646;23.292;2023-02-12T19:32:50;95143.28;;;6.93;93.57
7586;BME280;12459;42.646;23.292;2023-02-12T19:47:52;95151.97;;;6.90;92.83
7586;BME280;12459;42.646;23.292;2023-02-12T20:02:56;95172.41;;;6.86;92.69
7586;BME280;12459;42.646;23.292;2023-02-12T20:17:57;95182.63;;;6.84;92.03
7586;BME280;12459;42.646;23.292;2023-02-12T20:32:59;95191.28;;;6.81;92.04
7586;BME280;12459;42.646;23.292;2023-02-12T20:48:01;95183.28;;;6.81;91.66
7586;BME280;12459;42.646;23.292;2023-02-12T21:03:02;95188.53;;;6.78;91.27
7586;BME280;12459;42.646;23.292;2023-02-12T21:18:06;95225.06;;;6.77;91.24
7586;BME280;12459;42.646;23.292;2023-02-12T21:33:07;95224.59;;;6.75;91.35
7586;BME280;12459;42.646;23.292;2023-02-12T21:48:09;95232.59;;;6.75;90.98
7586;BME280;12459;42.646;23.292;2023-02-12T22:03:10;95255.38;;;6.72;90.81
7586;BME280;12459;42.646;23.292;2023-02-12T22:18:12;95261.81;;;6.71;90.65
7586;BME280;12459;42.646;23.292;2023-02-12T22:33:14;95259.47;;;6.70;90.48
7586;BME280;12459;42.646;23.292;2023-02-12T22:48:15;95278.47;;;6.68;90.91
7586;BME280;12459;42.646;23.292;2023-02-12T23:03:17;95283.34;;;6.66;90.48
7586;BME280;12459;42.646;23.292;2023-02-12T23:18:18;95289.09;;;6.68;89.81
7586;BME280;12459;42.646;23.292;2023-02-12T23:33:20;95295.22;;;6.69;89.69
7586;BME280;12459;42.646;23.292;2023-02-12T23:48:22;95309.66;;;6.68;89.35
